Time;durP1;ratioP1;P1;durP2;ratioP2;P2;SDS_P1;SDS_P2;PMS_P1;PMS_P2;Temp;Humidity;BMP_temperature;BMP_pressure;BME280_temperature;BME280_humidity;BME280_pressure;Samples;Min_cycle;Max_cycle;Signal;HPM_P1;HPM_P2
2021/08/31 00:00:16;;;;;;;29.45;21.13;;;14.30;99.90;;;;;;5077289;28;20048;-59
2021/08/31 00:02:42;;;;;;;31.35;23.98;;;14.40;99.90;;;;;;5066828;28;20060;-60
2021/08/31 00:05:13;;;;;;;32.80;25.23;;;14.30;99.90;;;;;;5080530;28;20064;-57
2021/08/31 00:07:39;;;;;;;28.58;22.98;;;14.40;99.90;;;;;;5080626;28;20879;-58
2021/08/31 00:10:06;;;;;;;27.02;23.02;;;14.30;99.90;;;;;;5084371;28;20112;-63
2021/08/31 00:12:33;;;;;;;30.08;22.30;;;14.30;99.90;;;;;;5087365;28;20468;-62
2021/08/31 00:14:59;;;;;;;30.25;23.02;;;14.30;99.90;;;;;;5083804;28;20126;-63
2021/08/31 00:17:25;;;;;;;27.35;23.30;;;14.20;99.90;;;;;;5076681;28;20124;-62
2021/08/31 00:19:51;;;;;;;25.52;20.45;;;14.20;99.90;;;;;;5066630;28;20114;-62
2021/08/31 00:22:18;;;;;;;29.15;21.80;;;14.20;99.90;;;;;;5083496;28;20052;-62
2021/08/31 00:24:44;;;;;;;31.95;22.90;;;14.20;99.90;;;;;;5082423;28;20453;-63
2021/08/31 00:27:10;;;;;;;29.25;23.08;;;14.20;99.90;;;;;;5086354;28;20055;-61
2021/08/31 00:29:36;;;;;;;27.83;21.77;;;14.10;99.90;;;;;;5053104;28;20052;-62
2021/08/31 00:32:02;;;;;;;28.00;20.90;;;14.10;99.90;;;;;;5076978;28;20062;-62
2021/08/31 00:34:28;;;;;;;36.63;23.10;;;14.10;99.90;;;;;;5087698;28;20369;-61
2021/08/31 00:36:57;;;;;;;27.05;21.17;;;14.10;99.90;;;;;;5081277;28;20135;-62
2021/08/31 00:39:23;;;;;;;23.27;20.60;;;14.00;99.90;;;;;;5081030;28;20579;-62
2021/08/31 00:41:49;;;;;;;33.22;22.70;;;14.00;99.90;;;;;;5085149;28;20163;-62
2021/08/31 00:44:24;;;;;;;26.27;19.95;;;14.00;99.90;;;;;;5086759;28;20054;-61
2021/08/31 00:46:55;;;;;;;28.15;20.05;;;14.00;99.90;;;;;;5084190;28;20052;-62
2021/08/31 00:49:21;;;;;;;26.13;20.52;;;14.00;99.90;;;;;;5083986;28;20084;-60
2021/08/31 00:51:48;;;;;;;28.30;19.60;;;14.00;99.90;;;;;;5075966;28;20182;-61
2021/08/31 00:54:17;;;;;;;30.48;22.27;;;14.00;99.90;;;;;;5102333;27;20060;-62
2021/08/31 00:56:44;;;;;;;27.00;21.48;;;14.00;99.90;;;;;;5069831;28;20051;-62
2021/08/31 00:59:11;;;;;;;28.02;20.33;;;14.00;99.90;;;;;;5086035;28;20097;-61
2021/08/31 01:01:37;;;;;;;29.70;20.90;;;14.10;99.90;;;;;;5079288;28;20530;-63
2021/08/31 01:04:05;;;;;;;25.60;19.45;;;14.10;99.90;;;;;;5071656;28;20075;-62
2021/08/31 01:06:34;;;;;;;25.98;19.88;;;14.20;99.90;;;;;;5073398;28;20060;-61
2021/08/31 01:09:02;;;;;;;29.08;20.45;;;14.20;99.90;;;;;;5081186;28;20203;-62
2021/08/31 01:11:29;;;;;;;28.08;19.52;;;14.20;99.90;;;;;;5081909;28;20051;-61
2021/08/31 01:13:55;;;;;;;28.45;19.38;;;14.20;99.90;;;;;;5088821;28;20071;-63
2021/08/31 01:16:21;;;;;;;27.17;20.45;;;14.10;99.90;;;;;;5074845;28;20493;-61
2021/08/31 01:18:47;;;;;;;26.20;18.98;;;14.10;99.90;;;;;;5086653;28;20190;-62
2021/08/31 01:21:15;;;;;;;24.65;19.40;;;14.10;99.90;;;;;;5088874;28;20487;-61
2021/08/31 01:23:46;;;;;;;29.55;19.77;;;14.10;99.90;;;;;;5084581;28;20889;-63
2021/08/31 01:26:15;;;;;;;27.10;19.67;;;14.00;99.90;;;;;;5086574;28;20055;-64
2021/08/31 01:28:42;;;;;;;31.15;20.35;;;14.10;99.90;;;;;;5090028;28;21283;-61
2021/08/31 01:31:09;;;;;;;29.85;19.40;;;13.90;99.90;;;;;;5089967;28;20532;-62
2021/08/31 01:33:35;;;;;;;28.35;19.98;;;13.90;99.90;;;;;;5078349;28;20057;-62
2021/08/31 01:36:23;;;;;;;27.20;18.77;;;13.90;99.90;;;;;;5075550;28;20053;-62
2021/08/31 01:38:52;;;;;;;27.50;18.40;;;13.90;99.90;;;;;;5089377;28;20477;-63
2021/08/31 01:41:18;;;;;;;24.65;19.52;;;13.80;99.90;;;;;;5069987;28;20060;-62
2021/08/31 01:43:45;;;;;;;29.65;20.42;;;13.80;99.90;;;;;;5087936;28;20536;-64
2021/08/31 01:46:11;;;;;;;32.33;20.65;;;13.80;99.90;;;;;;5085189;28;20052;-63
2021/08/31 01:48:37;;;;;;;26.98;20.88;;;13.80;99.90;;;;;;5101914;27;20404;-63
2021/08/31 01:51:06;;;;;;;37.75;23.90;;;13.70;99.90;;;;;;5081513;28;20121;-61
2021/08/31 01:53:36;;;;;;;34.08;22.08;;;13.70;99.90;;;;;;5094184;28;20059;-61
2021/08/31 01:56:03;;;;;;;33.55;21.48;;;13.70;99.90;;;;;;5088683;28;20056;-62
2021/08/31 01:58:29;;;;;;;28.75;20.98;;;13.70;99.90;;;;;;5088547;28;20083;-63
2021/08/31 02:00:55;;;;;;;32.65;21.67;;;13.60;99.90;;;;;;5083765;28;20049;-62
2021/08/31 02:03:21;;;;;;;31.45;20.88;;;13.60;99.90;;;;;;5087108;28;20189;-61
2021/08/31 02:05:51;;;;;;;28.02;19.77;;;13.70;99.90;;;;;;5082952;28;20136;-64
2021/08/31 02:08:17;;;;;;;31.90;20.05;;;13.60;99.90;;;;;;5088147;28;20056;-61
2021/08/31 02:10:43;;;;;;;31.30;20.73;;;13.60;99.90;;;;;;5087431;28;20416;-61
2021/08/31 02:13:09;;;;;;;28.80;19.88;;;13.60;99.90;;;;;;5081782;28;20412;-59
2021/08/31 02:15:36;;;;;;;27.20;19.60;;;13.60;99.90;;;;;;5088908;28;20048;-60
2021/08/31 02:18:02;;;;;;;25.20;18.40;;;13.60;99.90;;;;;;5087494;28;20101;-60
2021/08/31 02:20:28;;;;;;;29.95;19.50;;;13.60;99.90;;;;;;5086176;28;20040;-60
2021/08/31 02:22:55;;;;;;;29.35;19.80;;;13.60;99.90;;;;;;5086972;28;20589;-60
2021/08/31 02:25:22;;;;;;;32.60;22.23;;;13.60;99.90;;;;;;5079445;28;20052;-60
2021/08/31 02:27:51;;;;;;;30.00;19.73;;;13.60;99.90;;;;;;5088998;28;20055;-60
2021/08/31 02:30:17;;;;;;;28.88;19.58;;;13.60;99.90;;;;;;5089633;28;20063;-60
2021/08/31 02:32:47;;;;;;;31.10;20.20;;;13.60;99.90;;;;;;5082059;28;20051;-59
2021/08/31 02:35:16;;;;;;;33.45;20.25;;;13.60;99.90;;;;;;5099844;28;20538;-60
2021/08/31 02:37:42;;;;;;;31.10;19.92;;;13.50;99.90;;;;;;5088753;28;20051;-60
2021/08/31 02:40:10;;;;;;;29.23;20.52;;;13.50;99.90;;;;;;5073142;28;20239;-59
2021/08/31 02:42:36;;;;;;;36.10;21.30;;;13.50;99.90;;;;;;5078340;28;20135;-60
2021/08/31 02:45:03;;;;;;;26.33;18.90;;;13.50;99.90;;;;;;5069170;28;20060;-59
2021/08/31 02:47:29;;;;;;;27.48;18.85;;;13.50;99.90;;;;;;5082113;28;20048;-61
2021/08/31 02:49:58;;;;;;;35.38;19.80;;;13.50;99.90;;;;;;5088867;28;20461;-60
2021/08/31 02:52:24;;;;;;;31.60;19.55;;;13.50;99.90;;;;;;5084966;28;20053;-59
2021/08/31 02:54:52;;;;;;;28.95;19.60;;;13.50;99.90;;;;;;5081684;28;20048;-61
2021/08/31 02:57:19;;;;;;;34.65;21.25;;;13.50;99.90;;;;;;5076605;28;20159;-59
2021/08/31 02:59:45;;;;;;;30.23;19.50;;;13.50;99.90;;;;;;5072760;28;20060;-59
2021/08/31 03:02:11;;;;;;;28.65;19.08;;;13.50;99.90;;;;;;5069710;28;20497;-60
2021/08/31 03:04:42;;;;;;;32.53;19.17;;;13.50;99.90;;;;;;5078253;28;20060;-59
2021/08/31 03:07:17;;;;;;;28.85;19.40;;;13.50;99.90;;;;;;5081163;28;20055;-59
2021/08/31 03:09:43;;;;;;;25.85;17.45;;;13.50;99.90;;;;;;5087551;28;20060;-60
2021/08/31 03:12:10;;;;;;;36.03;18.77;;;13.50;99.90;;;;;;5089531;28;20059;-61
2021/08/31 03:14:39;;;;;;;28.30;18.75;;;13.50;99.90;;;;;;5085088;28;20947;-60
2021/08/31 03:17:06;;;;;;;27.80;17.33;;;13.50;99.90;;;;;;5068846;28;20102;-60
2021/08/31 03:19:33;;;;;;;25.27;17.20;;;13.50;99.90;;;;;;5085475;28;20058;-61
2021/08/31 03:22:01;;;;;;;32.10;19.35;;;13.50;99.90;;;;;;5088734;28;20109;-60
2021/08/31 03:24:29;;;;;;;29.65;18.65;;;13.60;99.90;;;;;;5071186;28;20048;-60
2021/08/31 03:26:55;;;;;;;27.73;18.77;;;13.60;99.90;;;;;;5072484;28;20055;-60
2021/08/31 03:29:24;;;;;;;30.27;19.80;;;13.50;99.90;;;;;;5081537;28;20051;-61
2021/08/31 03:31:50;;;;;;;29.73;18.65;;;13.60;99.90;;;;;;5088852;28;20048;-60
2021/08/31 03:34:16;;;;;;;36.65;19.33;;;13.50;99.90;;;;;;5078958;28;20079;-61
2021/08/31 03:36:43;;;;;;;30.27;17.65;;;13.50;99.90;;;;;;5081023;28;20056;-61
2021/08/31 03:39:09;;;;;;;30.90;19.23;;;13.50;99.90;;;;;;5087148;28;20040;-61
2021/08/31 03:41:37;;;;;;;33.50;19.23;;;13.60;99.90;;;;;;5087023;28;20822;-61
2021/08/31 03:44:05;;;;;;;33.33;18.00;;;13.60;99.90;;;;;;5082350;28;20135;-60
2021/08/31 03:46:31;;;;;;;32.95;19.92;;;13.60;99.90;;;;;;5069314;28;20044;-61
2021/08/31 03:48:58;;;;;;;31.00;19.48;;;13.70;99.90;;;;;;5094489;28;20048;-60
2021/08/31 03:51:24;;;;;;;30.10;19.65;;;13.70;99.90;;;;;;5086369;28;20504;-60
2021/08/31 03:53:50;;;;;;;35.45;19.90;;;13.80;99.90;;;;;;5086772;28;20114;-60
2021/08/31 03:56:16;;;;;;;28.55;19.40;;;13.80;99.90;;;;;;5074279;28;20500;-60
2021/08/31 03:58:44;;;;;;;32.22;20.00;;;13.80;99.90;;;;;;5074936;28;20056;-60
2021/08/31 04:01:13;;;;;;;32.30;19.33;;;13.90;99.90;;;;;;5081257;28;20052;-60
2021/08/31 04:03:39;;;;;;;37.03;21.33;;;13.90;99.90;;;;;;5088025;28;20044;-60
2021/08/31 04:06:05;;;;;;;35.50;20.25;;;14.00;99.90;;;;;;5088144;28;20052;-60
2021/08/31 04:08:34;;;;;;;31.50;19.50;;;14.00;99.90;;;;;;5083871;28;20082;-60
2021/08/31 04:11:00;;;;;;;32.58;19.35;;;14.10;99.90;;;;;;5087732;28;20067;-60
2021/08/31 04:13:26;;;;;;;31.38;18.08;;;14.10;99.90;;;;;;5083490;28;20047;-60
2021/08/31 04:15:52;;;;;;;33.25;18.10;;;14.10;99.90;;;;;;5087781;28;20052;-63
2021/08/31 04:18:19;;;;;;;28.02;18.77;;;14.20;99.90;;;;;;5087344;28;20054;-57
2021/08/31 04:20:45;;;;;;;23.73;17.40;;;14.20;99.90;;;;;;5086616;28;20458;-58
2021/08/31 04:23:11;;;;;;;27.65;17.08;;;14.20;99.90;;;;;;5085665;28;20059;-57
2021/08/31 04:25:40;;;;;;;27.05;17.15;;;14.30;99.90;;;;;;5084767;28;20082;-59
2021/08/31 04:28:06;;;;;;;29.65;17.13;;;14.30;99.90;;;;;;5074667;28;20143;-57
2021/08/31 04:30:33;;;;;;;29.67;16.95;;;14.30;99.90;;;;;;5082430;28;20052;-57
2021/08/31 04:32:59;;;;;;;26.73;16.88;;;14.20;99.90;;;;;;5086132;28;20079;-58
2021/08/31 04:35:25;;;;;;;27.35;18.85;;;14.30;99.90;;;;;;5085583;28;20149;-58
2021/08/31 04:37:52;;;;;;;29.05;16.55;;;14.30;99.90;;;;;;5083424;28;20059;-58
2021/08/31 04:40:18;;;;;;;30.38;19.95;;;14.40;99.90;;;;;;5070861;28;20147;-58
2021/08/31 04:42:44;;;;;;;33.60;18.02;;;14.40;99.90;;;;;;5066369;28;20121;-58
2021/08/31 04:45:10;;;;;;;26.35;17.15;;;14.40;99.90;;;;;;5076182;28;20055;-58
2021/08/31 04:47:36;;;;;;;27.15;16.33;;;14.40;99.90;;;;;;5084514;28;20083;-57
2021/08/31 04:50:05;;;;;;;31.80;18.33;;;14.50;99.90;;;;;;5087117;28;20058;-57
2021/08/31 04:52:33;;;;;;;25.00;16.67;;;14.40;99.90;;;;;;5081941;28;20402;-58
2021/08/31 04:54:59;;;;;;;34.85;17.70;;;14.40;99.90;;;;;;5085375;28;20056;-59
2021/08/31 04:57:25;;;;;;;32.45;19.17;;;14.40;99.90;;;;;;5076456;28;20398;-59
2021/08/31 04:59:51;;;;;;;30.58;18.23;;;14.40;99.90;;;;;;5071882;28;20412;-58
2021/08/31 05:02:18;;;;;;;33.33;19.17;;;14.50;99.90;;;;;;5069088;28;20095;-58
2021/08/31 05:04:44;;;;;;;23.60;18.90;;;14.60;99.90;;;;;;5097012;28;20064;-59
2021/08/31 05:07:11;;;;;;;24.67;16.27;;;14.60;99.90;;;;;;5067087;28;20067;-59
2021/08/31 05:09:43;;;;;;;25.67;17.00;;;14.70;99.90;;;;;;5074985;28;20048;-58
2021/08/31 05:12:10;;;;;;;23.38;15.60;;;14.80;99.90;;;;;;5085168;28;20497;-58
2021/08/31 05:14:36;;;;;;;26.52;15.70;;;14.90;99.90;;;;;;5080479;28;20041;-59
2021/08/31 05:17:03;;;;;;;28.83;18.52;;;14.90;99.90;;;;;;5075885;28;20048;-58
2021/08/31 05:19:30;;;;;;;29.92;18.40;;;15.00;99.90;;;;;;5069011;28;20052;-58
2021/08/31 05:22:00;;;;;;;32.42;17.60;;;15.00;99.90;;;;;;5079923;28;20076;-58
2021/08/31 05:24:28;;;;;;;27.20;15.50;;;15.10;99.90;;;;;;5084399;28;20083;-58
2021/08/31 05:26:54;;;;;;;21.40;14.77;;;15.20;99.90;;;;;;5077464;28;20564;-58
2021/08/31 05:29:20;;;;;;;62.28;46.67;;;15.30;99.90;;;;;;5082867;28;20456;-57
2021/08/31 05:31:46;;;;;;;47.60;37.50;;;15.30;99.90;;;;;;5076188;28;20047;-58
2021/08/31 05:34:12;;;;;;;67.43;55.80;;;15.40;99.90;;;;;;5077976;28;20125;-58
2021/08/31 05:36:41;;;;;;;46.42;35.33;;;15.40;99.90;;;;;;5078405;28;20479;-57
2021/08/31 05:39:08;;;;;;;26.90;18.70;;;15.50;99.90;;;;;;5066777;28;20060;-58
2021/08/31 05:41:34;;;;;;;28.83;17.27;;;15.60;99.90;;;;;;5083916;28;20071;-58
2021/08/31 05:44:04;;;;;;;25.58;16.40;;;15.80;99.90;;;;;;5087166;28;20052;-58
2021/08/31 05:46:33;;;;;;;26.75;18.42;;;15.90;99.90;;;;;;5086307;28;20151;-59
2021/08/31 05:48:59;;;;;;;23.58;14.90;;;16.10;99.90;;;;;;5067703;28;20355;-57
2021/08/31 05:51:35;;;;;;;22.40;14.73;;;16.20;99.90;;;;;;5074559;28;20056;-58
2021/08/31 05:54:03;;;;;;;23.05;14.18;;;16.30;99.90;;;;;;5078388;28;20117;-57
2021/08/31 05:56:33;;;;;;;17.92;12.98;;;16.40;99.90;;;;;;5069834;28;20088;-58
2021/08/31 05:58:59;;;;;;;20.73;14.15;;;16.50;99.90;;;;;;5090284;28;20135;-57
2021/08/31 06:01:25;;;;;;;21.70;13.40;;;16.70;99.90;;;;;;5090169;28;20055;-58
2021/08/31 06:03:51;;;;;;;26.52;16.02;;;16.80;99.90;;;;;;5090785;28;20044;-57
2021/08/31 06:06:17;;;;;;;19.63;12.45;;;17.00;99.90;;;;;;5090429;28;20052;-57
2021/08/31 06:08:43;;;;;;;21.48;15.48;;;17.20;99.90;;;;;;5090706;28;20052;-58
2021/08/31 06:11:10;;;;;;;19.52;13.32;;;17.30;99.90;;;;;;5089460;28;20056;-57
2021/08/31 06:13:37;;;;;;;20.17;11.98;;;17.40;99.90;;;;;;5089017;28;20137;-57
2021/08/31 06:16:03;;;;;;;19.52;11.50;;;17.40;99.90;;;;;;5090180;28;20543;-58
2021/08/31 06:18:29;;;;;;;16.00;11.00;;;17.50;99.90;;;;;;5090412;28;20048;-57
2021/08/31 06:20:58;;;;;;;30.30;22.38;;;17.60;99.90;;;;;;5090577;28;20801;-57
2021/08/31 06:23:24;;;;;;;18.83;11.18;;;17.70;99.90;;;;;;5090205;28;20051;-57
2021/08/31 06:25:50;;;;;;;15.90;11.20;;;17.80;99.90;;;;;;5090355;28;20396;-57
2021/08/31 06:28:19;;;;;;;17.77;10.75;;;17.70;99.90;;;;;;5085586;28;20055;-45
2021/08/31 06:30:45;;;;;;;19.35;11.07;;;17.70;99.90;;;;;;5089691;28;20053;-56
2021/08/31 06:33:13;;;;;;;22.30;16.80;;;17.60;99.90;;;;;;5077743;28;20044;-51
2021/08/31 06:35:39;;;;;;;22.73;12.75;;;17.70;99.90;;;;;;5069339;28;20056;-53
2021/08/31 06:38:08;;;;;;;15.40;10.45;;;17.70;99.90;;;;;;5079454;28;20131;-50
2021/08/31 06:40:36;;;;;;;21.73;12.73;;;17.70;99.90;;;;;;5090281;28;20066;-53
2021/08/31 06:43:02;;;;;;;24.63;12.65;;;17.80;99.90;;;;;;5088858;28;20108;-58
2021/08/31 06:45:28;;;;;;;25.55;20.55;;;17.90;99.90;;;;;;5090070;28;20051;-54
2021/08/31 06:47:55;;;;;;;16.30;10.20;;;17.90;99.90;;;;;;5089638;28;20060;-53
2021/08/31 06:50:21;;;;;;;20.90;15.90;;;17.90;99.90;;;;;;5090238;28;20186;-52
2021/08/31 06:52:51;;;;;;;22.50;16.95;;;17.90;99.90;;;;;;5090237;28;20056;-56
2021/08/31 06:55:18;;;;;;;21.27;13.68;;;17.80;99.90;;;;;;5085461;28;20491;-52
2021/08/31 06:57:47;;;;;;;20.73;11.43;;;17.90;99.90;;;;;;5077673;28;20534;-52
2021/08/31 07:00:14;;;;;;;18.70;11.38;;;18.00;99.90;;;;;;5086484;28;20048;-55
2021/08/31 07:02:40;;;;;;;13.15;9.35;;;18.10;99.90;;;;;;5086476;28;20048;-52
2021/08/31 07:05:10;;;;;;;19.05;9.48;;;18.30;99.90;;;;;;5086137;28;20054;-55
2021/08/31 07:07:41;;;;;;;13.38;8.93;;;18.30;99.90;;;;;;5087698;28;20523;-57
2021/08/31 07:10:08;;;;;;;14.00;9.70;;;18.40;99.90;;;;;;5087514;28;20467;-58
2021/08/31 07:12:34;;;;;;;16.50;10.07;;;18.40;99.90;;;;;;5085694;28;20083;-56
2021/08/31 07:15:00;;;;;;;17.10;8.98;;;18.60;99.90;;;;;;5088310;28;20052;-56
2021/08/31 07:17:26;;;;;;;16.83;9.77;;;18.50;99.90;;;;;;5087530;28;20056;-56
2021/08/31 07:19:55;;;;;;;18.05;9.32;;;18.50;99.90;;;;;;5084396;28;20087;-51
2021/08/31 07:22:21;;;;;;;14.23;8.10;;;18.80;99.90;;;;;;5085018;28;22171;-59
2021/08/31 07:24:49;;;;;;;13.43;8.27;;;19.00;99.90;;;;;;5084469;28;20044;-57
2021/08/31 07:27:16;;;;;;;12.70;7.90;;;19.40;99.90;;;;;;5088116;28;20056;-55
2021/08/31 07:29:42;;;;;;;104.07;93.55;;;19.50;99.90;;;;;;5085715;28;20056;-56
2021/08/31 07:32:08;;;;;;;35.20;31.25;;;19.60;99.90;;;;;;5076611;28;20052;-57
2021/08/31 07:34:35;;;;;;;19.48;12.25;;;19.70;99.90;;;;;;5071733;28;20105;-58
2021/08/31 07:37:01;;;;;;;18.00;10.80;;;19.70;99.90;;;;;;5079775;28;20410;-59
2021/08/31 07:39:27;;;;;;;14.68;7.15;;;19.70;99.90;;;;;;5060755;28;20076;-58
2021/08/31 07:41:53;;;;;;;14.10;9.80;;;19.70;99.90;;;;;;5085226;28;20500;-57
2021/08/31 07:44:19;;;;;;;16.17;7.43;;;19.80;99.90;;;;;;5087906;28;20511;-59
2021/08/31 07:46:46;;;;;;;11.52;8.00;;;19.90;99.90;;;;;;5084290;28;20044;-58
2021/08/31 07:49:14;;;;;;;28.25;23.48;;;20.10;99.90;;;;;;5086094;28;20977;-58
2021/08/31 07:51:41;;;;;;;18.70;10.00;;;20.00;99.90;;;;;;5100953;27;20063;-58
2021/08/31 07:54:08;;;;;;;27.50;22.63;;;19.90;99.90;;;;;;5077728;28;20048;-57
2021/08/31 07:56:35;;;;;;;29.63;24.67;;;19.80;99.90;;;;;;5081668;28;20060;-58
2021/08/31 07:59:01;;;;;;;16.45;9.43;;;20.30;99.90;;;;;;5076870;28;20130;-58
2021/08/31 08:01:27;;;;;;;15.00;10.68;;;20.90;99.90;;;;;;5086984;28;20518;-59
2021/08/31 08:03:53;;;;;;;11.73;7.38;;;21.60;99.90;;;;;;5076437;28;20513;-59
2021/08/31 08:06:23;;;;;;;70.57;63.30;;;22.10;99.90;;;;;;5076450;28;20084;-57
2021/08/31 08:08:49;;;;;;;35.42;30.95;;;22.50;99.90;;;;;;5107942;28;20055;-58
2021/08/31 08:11:16;;;;;;;18.88;14.23;;;22.60;99.90;;;;;;5085697;28;20412;-58
2021/08/31 08:13:42;;;;;;;18.90;13.70;;;22.10;99.90;;;;;;5085184;28;20457;-58
2021/08/31 08:16:08;;;;;;;30.58;27.42;;;22.10;99.90;;;;;;5080732;28;20108;-58
2021/08/31 08:18:34;;;;;;;35.08;31.50;;;22.30;99.90;;;;;;5082030;28;20055;-59
2021/08/31 08:21:00;;;;;;;27.45;24.13;;;22.50;99.90;;;;;;5080952;28;20048;-58
2021/08/31 08:23:27;;;;;;;24.25;21.02;;;23.10;99.90;;;;;;5083600;28;20102;-58
2021/08/31 08:25:53;;;;;;;40.67;36.50;;;23.40;99.90;;;;;;5068144;28;20130;-58
2021/08/31 08:28:23;;;;;;;21.15;16.77;;;23.90;99.90;;;;;;5079322;28;20048;-59
2021/08/31 08:30:50;;;;;;;20.90;16.85;;;24.00;99.90;;;;;;5086464;28;20083;-58
2021/08/31 08:33:17;;;;;;;14.68;11.05;;;24.20;99.90;;;;;;5076282;28;20506;-59
2021/08/31 08:35:44;;;;;;;16.27;11.20;;;24.60;99.90;;;;;;5082276;28;20051;-58
2021/08/31 08:38:10;;;;;;;13.30;9.07;;;24.60;99.90;;;;;;5066616;28;20064;-58
2021/08/31 08:40:36;;;;;;;14.88;13.15;;;25.10;99.90;;;;;;5071332;28;20138;-58
2021/08/31 08:43:04;;;;;;;11.82;6.72;;;25.20;99.20;;;;;;5073921;28;20082;-59
2021/08/31 08:45:31;;;;;;;12.57;6.97;;;25.60;94.50;;;;;;5067205;28;20655;-59
2021/08/31 08:47:57;;;;;;;9.75;6.60;;;26.00;95.20;;;;;;5075566;28;20131;-59
2021/08/31 08:50:24;;;;;;;11.25;5.22;;;26.20;92.10;;;;;;5086091;28;20555;-59
2021/08/31 08:52:50;;;;;;;25.55;22.73;;;26.30;91.40;;;;;;5081571;28;20114;-58
2021/08/31 08:55:16;;;;;;;14.43;12.38;;;26.50;90.20;;;;;;5069669;28;20079;-58
2021/08/31 08:57:43;;;;;;;21.02;17.33;;;25.80;86.50;;;;;;5068434;28;20586;-58
2021/08/31 09:00:12;;;;;;;12.63;8.55;;;26.10;86.70;;;;;;5084837;28;20205;-58
2021/08/31 09:02:40;;;;;;;11.70;7.95;;;26.40;84.60;;;;;;5073396;28;20076;-58
2021/08/31 09:05:08;;;;;;;24.55;21.95;;;26.50;81.10;;;;;;5087756;28;20052;-58
2021/08/31 09:07:40;;;;;;;39.63;35.78;;;26.40;78.20;;;;;;5082069;28;20055;-59
2021/08/31 09:10:22;;;;;;;78.95;72.10;;;26.40;75.40;;;;;;5069310;28;20504;-60
2021/08/31 09:12:52;;;;;;;13.27;9.27;;;26.60;68.10;;;;;;5079532;28;20121;-59
2021/08/31 09:15:19;;;;;;;9.63;5.70;;;26.70;72.50;;;;;;5084053;28;20055;-60
2021/08/31 09:18:13;;;;;;;30.73;27.52;;;26.90;72.10;;;;;;5068305;28;20694;-59
2021/08/31 09:20:44;;;;;;;16.10;13.63;;;26.90;66.00;;;;;;5071430;28;20088;-59
2021/08/31 09:23:10;;;;;;;;;;;27.00;68.20;;;;;;5074086;28;20082;-59
2021/08/31 09:25:42;;;;;;;9.63;5.10;;;27.30;67.70;;;;;;5073611;28;19920;-59
2021/08/31 09:28:41;;;;;;;10.07;4.85;;;27.60;70.70;;;;;;5082027;28;20048;-60
2021/08/31 09:31:11;;;;;;;10.87;4.83;;;27.50;64.50;;;;;;5062040;28;20064;-59
2021/08/31 09:33:49;;;;;;;10.88;5.95;;;27.30;66.90;;;;;;5064727;28;20044;-59
2021/08/31 09:36:19;;;;;;;12.50;5.88;;;26.00;67.50;;;;;;5056003;28;20463;-59
2021/08/31 09:39:02;;;;;;;17.40;15.05;;;25.60;71.30;;;;;;5067272;28;20052;-60
2021/08/31 09:41:36;;;;;;;12.30;9.27;;;25.90;73.10;;;;;;5058556;28;20056;-59
2021/08/31 09:44:07;;;;;;;7.65;3.92;;;26.00;72.50;;;;;;5062675;28;20048;-60
2021/08/31 09:46:46;;;;;;;28.58;25.65;;;25.70;71.20;;;;;;5051125;28;20113;-59
2021/08/31 09:49:39;;;;;;;32.03;28.80;;;25.30;71.30;;;;;;5058193;28;20480;-59
2021/08/31 09:52:12;;;;;;;9.82;6.13;;;26.00;71.30;;;;;;5059590;28;20052;-60
2021/08/31 09:54:49;;;;;;;45.58;39.67;;;26.60;73.00;;;;;;5059287;28;20052;-59
2021/08/31 09:57:37;;;;;;;10.40;6.28;;;27.30;68.40;;;;;;5047500;28;20088;-59
2021/08/31 10:00:13;;;;;;;23.83;20.15;;;27.60;65.00;;;;;;5063670;28;20052;-59
2021/08/31 10:02:42;;;;;;;11.48;5.22;;;27.70;65.70;;;;;;5058028;28;20523;-59
2021/08/31 10:05:08;;;;;;;16.85;14.07;;;27.10;63.70;;;;;;5064545;28;20068;-59
2021/08/31 10:07:36;;;;;;;20.92;15.38;;;27.10;64.00;;;;;;5070663;28;20056;-60
2021/08/31 10:10:07;;;;;;;19.05;12.63;;;27.40;65.00;;;;;;5090021;28;20105;-59
2021/08/31 10:12:34;;;;;;;7.50;4.05;;;27.90;63.40;;;;;;5081063;28;20048;-59
2021/08/31 10:15:02;;;;;;;8.68;4.05;;;28.30;63.10;;;;;;5084820;28;20488;-59
2021/08/31 10:17:29;;;;;;;17.30;11.50;;;28.20;62.00;;;;;;5089951;28;20056;-59
2021/08/31 10:20:01;;;;;;;12.45;6.72;;;28.00;61.40;;;;;;5077640;28;20059;-60
2021/08/31 10:22:28;;;;;;;11.40;5.47;;;27.50;60.00;;;;;;5099444;28;20124;-59
2021/08/31 10:24:55;;;;;;;8.55;5.95;;;27.90;60.70;;;;;;5081827;28;20060;-60
2021/08/31 10:27:38;;;;;;;10.98;5.88;;;28.20;59.90;;;;;;5089581;28;20052;-59
2021/08/31 10:30:16;;;;;;;14.68;5.32;;;28.70;58.90;;;;;;5089058;28;20527;-60
2021/08/31 10:32:49;;;;;;;12.35;8.70;;;28.50;58.10;;;;;;5087937;28;20056;-59
2021/08/31 10:35:39;;;;;;;10.75;5.03;;;27.70;58.70;;;;;;5075499;28;20053;-55
2021/08/31 10:38:13;;;;;;;8.82;5.22;;;27.30;57.50;;;;;;5073311;28;20052;-60
2021/08/31 10:40:42;;;;;;;17.77;15.27;;;27.10;60.30;;;;;;5071784;28;20065;-59
2021/08/31 10:43:20;;;;;;;14.13;11.57;;;27.30;59.90;;;;;;5078705;28;20056;-60
2021/08/31 10:45:58;;;;;;;7.47;3.67;;;27.70;57.90;;;;;;5090408;28;20095;-60
2021/08/31 10:48:24;;;;;;;15.35;10.02;;;28.40;58.60;;;;;;5072754;28;20061;-60
2021/08/31 10:51:05;;;;;;;14.15;10.38;;;28.80;57.60;;;;;;5071537;28;20052;-59
2021/08/31 10:53:39;;;;;;;11.98;5.00;;;29.00;54.00;;;;;;5082145;28;20404;-60
2021/08/31 10:56:23;;;;;;;12.02;9.93;;;29.40;56.30;;;;;;5068688;28;20052;-60
2021/08/31 10:59:00;;;;;;;17.63;8.48;;;29.30;54.70;;;;;;5081516;28;20446;-60
2021/08/31 11:01:50;;;;;;;18.40;15.30;;;28.40;56.00;;;;;;5082041;28;20051;-60
2021/08/31 11:04:29;;;;;;;22.05;19.40;;;28.90;56.60;;;;;;5071952;28;20612;-59
2021/08/31 11:06:58;;;;;;;35.17;31.70;;;29.30;53.80;;;;;;5076425;28;20500;-60
2021/08/31 11:09:25;;;;;;;19.95;15.73;;;29.30;54.50;;;;;;5113920;27;20197;-59
2021/08/31 11:12:17;;;;;;;10.85;4.65;;;29.00;53.60;;;;;;5095090;28;20386;-61
2021/08/31 11:14:48;;;;;;;14.27;10.18;;;27.90;53.50;;;;;;5070406;28;20564;-60
2021/08/31 11:17:40;;;;;;;11.30;6.05;;;27.10;55.40;;;;;;5079204;28;20048;-59
2021/08/31 11:20:17;;;;;;;11.23;4.67;;;26.80;55.10;;;;;;5086754;28;20389;-59
2021/08/31 11:22:52;;;;;;;30.65;26.98;;;27.30;56.00;;;;;;5074909;28;20927;-60
2021/08/31 11:25:27;;;;;;;21.95;18.45;;;28.00;57.30;;;;;;5073212;28;20163;-59
2021/08/31 11:28:07;;;;;;;28.67;25.73;;;27.50;55.70;;;;;;5086622;28;20052;-59
2021/08/31 11:31:01;;;;;;;34.33;30.08;;;27.20;57.50;;;;;;5085388;28;20133;-59
2021/08/31 11:33:39;;;;;;;27.05;24.23;;;26.70;58.50;;;;;;5088352;28;20044;-59
2021/08/31 11:36:11;;;;;;;27.27;24.25;;;27.40;57.90;;;;;;5079796;28;20048;-59
2021/08/31 11:38:39;;;;;;;14.05;9.07;;;27.60;56.10;;;;;;5068069;28;20468;-59
2021/08/31 11:41:22;;;;;;;13.27;7.05;;;27.00;56.60;;;;;;5067979;28;20524;-59
2021/08/31 11:44:08;;;;;;;14.43;9.75;;;26.90;58.20;;;;;;5069244;28;20044;-59
2021/08/31 11:46:39;;;;;;;12.00;4.88;;;27.30;57.00;;;;;;5067775;28;20059;-59
2021/08/31 11:49:20;;;;;;;12.88;4.72;;;27.30;57.20;;;;;;5072648;28;20048;-59
2021/08/31 11:51:54;;;;;;;15.18;11.02;;;27.00;58.20;;;;;;5086492;28;20082;-59
2021/08/31 11:54:24;;;;;;;8.75;3.85;;;27.90;57.40;;;;;;5087787;28;20126;-59
2021/08/31 11:56:58;;;;;;;13.48;7.07;;;28.40;56.00;;;;;;5085894;28;20128;-59
2021/08/31 11:59:37;;;;;;;35.85;32.08;;;28.60;54.50;;;;;;5087235;28;20060;-59
2021/08/31 12:02:10;;;;;;;21.25;14.75;;;28.40;55.50;;;;;;5084370;28;20139;-59
2021/08/31 12:04:37;;;;;;;25.13;19.80;;;27.50;57.20;;;;;;5069686;28;20084;-59
2021/08/31 12:07:06;;;;;;;17.10;12.73;;;26.70;58.40;;;;;;5080839;28;20049;-58
2021/08/31 12:09:33;;;;;;;28.60;23.20;;;26.30;60.00;;;;;;5068433;28;20533;-59
2021/08/31 12:11:59;;;;;;;12.25;5.53;;;27.10;61.00;;;;;;5088170;28;20134;-59
2021/08/31 12:14:25;;;;;;;10.75;4.47;;;26.90;59.80;;;;;;5076298;28;20528;-58
2021/08/31 12:16:51;;;;;;;48.85;44.08;;;27.20;59.00;;;;;;5078618;28;20541;-58
2021/08/31 12:19:25;;;;;;;44.80;40.42;;;27.20;59.50;;;;;;5087155;28;20567;-59
2021/08/31 12:22:15;;;;;;;16.33;8.73;;;26.50;59.10;;;;;;5071924;28;20049;-63
2021/08/31 12:24:44;;;;;;;10.30;4.70;;;25.60;60.60;;;;;;5075552;28;20047;-63
2021/08/31 12:27:16;;;;;;;11.73;5.45;;;25.90;62.00;;;;;;5074826;28;20067;-62
2021/08/31 12:29:49;;;;;;;15.35;9.57;;;26.50;60.10;;;;;;5077722;28;20056;-62
2021/08/31 12:32:25;;;;;;;8.10;3.95;;;27.20;57.70;;;;;;5065858;28;20049;-63
2021/08/31 12:34:52;;;;;;;8.30;4.28;;;27.10;58.10;;;;;;5067169;28;20386;-62
2021/08/31 12:37:28;;;;;;;14.77;5.72;;;26.30;59.40;;;;;;5067518;28;20123;-62
2021/08/31 12:40:14;;;;;;;10.70;4.13;;;25.80;62.80;;;;;;5067087;28;20971;-62